createdAt,value
2022-09-06T00:01:39.947Z,5.43
2022-09-06T00:04:08.122Z,4.97
2022-09-06T00:06:36.825Z,5.00
2022-09-06T00:09:03.717Z,5.03
2022-09-06T00:11:30.393Z,5.10
2022-09-06T00:13:57.128Z,5.20
2022-09-06T00:16:28.413Z,5.97
2022-09-06T00:18:57.236Z,4.93
2022-09-06T00:21:26.366Z,5.60
2022-09-06T00:23:53.418Z,5.43
2022-09-06T00:26:20.709Z,5.77
2022-09-06T00:28:47.707Z,5.80
2022-09-06T00:31:14.416Z,5.70
2022-09-06T00:33:41.469Z,5.60
2022-09-06T00:36:10.881Z,7.30
2022-09-06T00:38:38.555Z,7.13
2022-09-06T00:41:07.097Z,7.50
2022-09-06T00:43:33.967Z,6.90
2022-09-06T00:46:01.445Z,6.97
2022-09-06T00:48:28.458Z,7.00
2022-09-06T00:50:59.199Z,6.90
2022-09-06T00:53:26.185Z,8.03
2022-09-06T00:55:53.833Z,7.47
2022-09-06T00:58:21.001Z,8.03
2022-09-06T01:00:47.758Z,8.60
2022-09-06T01:03:14.727Z,8.17
2022-09-06T01:05:54.540Z,8.13
2022-09-06T01:08:40.360Z,8.90
2022-09-06T01:11:22.295Z,9.20
2022-09-06T01:13:59.161Z,9.00
2022-09-06T01:16:31.827Z,9.73
2022-09-06T01:19:10.467Z,10.40
2022-09-06T01:22:21.967Z,10.77
2022-09-06T01:24:48.660Z,10.20
2022-09-06T01:27:53.284Z,10.20
2022-09-06T01:30:20.586Z,10.50
2022-09-06T01:32:56.539Z,11.53
2022-09-06T01:35:38.909Z,12.37
2022-09-06T01:38:06.879Z,12.63
2022-09-06T01:40:36.560Z,12.27
2022-09-06T01:43:11.071Z,12.43
2022-09-06T01:46:14.156Z,13.23
2022-09-06T01:49:22.302Z,12.17
2022-09-06T01:52:08.447Z,12.73
2022-09-06T01:55:05.498Z,12.27
2022-09-06T01:57:40.910Z,12.43
2022-09-06T02:00:09.344Z,13.07
2022-09-06T02:02:50.729Z,14.53
2022-09-06T02:05:27.374Z,14.37
2022-09-06T02:07:58.350Z,13.73
2022-09-06T02:10:34.923Z,13.00
2022-09-06T02:13:02.627Z,12.93
2022-09-06T02:15:33.376Z,13.77
2022-09-06T02:18:05.012Z,13.70
2022-09-06T02:20:34.197Z,13.33
2022-09-06T02:23:05.052Z,13.20
2022-09-06T02:25:40.422Z,12.70
2022-09-06T02:28:08.180Z,12.40
2022-09-06T02:30:39.110Z,13.07
2022-09-06T02:33:14.401Z,12.60
2022-09-06T02:35:49.767Z,13.13
2022-09-06T02:38:17.656Z,12.87
2022-09-06T02:40:45.112Z,12.70
2022-09-06T02:43:11.863Z,12.23
2022-09-06T02:45:38.682Z,11.77
2022-09-06T02:48:05.529Z,12.40
2022-09-06T02:50:32.384Z,11.93
2022-09-06T02:53:06.383Z,12.33
2022-09-06T02:55:33.514Z,12.57
2022-09-06T02:58:00.230Z,12.47
2022-09-06T03:00:28.201Z,12.20
2022-09-06T03:02:55.918Z,12.30
2022-09-06T03:05:24.078Z,12.07
2022-09-06T03:07:51.300Z,12.40
2022-09-06T03:10:18.438Z,12.03
2022-09-06T03:12:45.599Z,13.20
2022-09-06T03:15:14.216Z,11.47
2022-09-06T03:17:45.676Z,12.40
2022-09-06T03:20:16.264Z,12.87
2022-09-06T03:22:43.197Z,11.43
2022-09-06T03:25:10.948Z,11.90
2022-09-06T03:27:37.713Z,11.90
2022-09-06T03:30:06.210Z,11.23
2022-09-06T03:32:33.008Z,11.23
2022-09-06T03:34:59.868Z,11.60
2022-09-06T03:37:26.918Z,10.63
2022-09-06T03:39:53.742Z,10.57
2022-09-06T03:42:20.598Z,10.47
2022-09-06T03:44:47.446Z,11.13
2022-09-06T03:47:19.299Z,10.83
2022-09-06T03:49:47.111Z,10.83
2022-09-06T03:52:14.163Z,10.60
2022-09-06T03:54:40.948Z,10.53
2022-09-06T03:57:07.692Z,9.53
2022-09-06T03:59:34.722Z,10.60
2022-09-06T04:02:01.711Z,9.67
2022-09-06T04:04:28.643Z,10.53
2022-09-06T04:06:55.408Z,10.43
2022-09-06T04:09:22.135Z,10.83
2022-09-06T04:11:48.886Z,10.60
2022-09-06T04:14:15.603Z,10.23
2022-09-06T04:16:42.401Z,11.80
2022-09-06T04:19:09.122Z,10.40
2022-09-06T04:21:35.937Z,10.90
2022-09-06T04:24:03.080Z,11.03
2022-09-06T04:26:29.856Z,10.07
2022-09-06T04:28:56.692Z,10.47
2022-09-06T04:31:23.421Z,9.63
2022-09-06T04:33:50.279Z,10.63
2022-09-06T04:36:17.071Z,10.80
2022-09-06T04:38:44.936Z,10.30
2022-09-06T04:41:13.325Z,10.90
2022-09-06T04:43:40.171Z,10.40
2022-09-06T04:46:11.611Z,10.47
2022-09-06T04:48:38.452Z,10.23
2022-09-06T04:51:05.288Z,10.87
2022-09-06T04:53:32.043Z,10.70
2022-09-06T04:55:58.968Z,10.57
2022-09-06T04:58:25.809Z,10.23
2022-09-06T05:00:52.845Z,10.07
2022-09-06T05:03:19.705Z,10.47
2022-09-06T05:05:46.449Z,9.97
2022-09-06T05:08:13.131Z,10.20
2022-09-06T05:10:39.993Z,10.83
2022-09-06T05:13:06.784Z,10.37
2022-09-06T05:15:33.978Z,10.53
2022-09-06T05:18:05.262Z,10.53
2022-09-06T05:20:32.109Z,9.63
2022-09-06T05:22:58.843Z,10.50
2022-09-06T05:25:25.692Z,10.27
2022-09-06T05:27:52.451Z,10.20
2022-09-06T05:30:19.804Z,10.30
2022-09-06T05:32:46.582Z,9.77
2022-09-06T05:35:13.417Z,10.17
2022-09-06T05:37:40.164Z,9.83
2022-09-06T05:40:07.492Z,10.00
2022-09-06T05:42:34.291Z,10.07
2022-09-06T05:45:01.874Z,9.40
2022-09-06T05:47:28.707Z,9.23
2022-09-06T05:49:55.470Z,9.73
2022-09-06T05:52:22.262Z,9.80
2022-09-06T05:54:49.027Z,10.17
2022-09-06T05:57:15.779Z,11.73
2022-09-06T05:59:42.503Z,11.07
2022-09-06T06:02:09.301Z,10.87
2022-09-06T06:04:36.188Z,11.50
2022-09-06T06:07:03.019Z,11.43
2022-09-06T06:09:29.727Z,10.77
2022-09-06T06:11:57.562Z,11.60
2022-09-06T06:14:24.485Z,10.83
2022-09-06T06:16:51.228Z,12.13
2022-09-06T06:19:18.013Z,12.43
2022-09-06T06:21:44.918Z,11.33
2022-09-06T06:24:11.717Z,11.53
2022-09-06T06:26:38.699Z,11.03
2022-09-06T06:29:08.349Z,12.30
2022-09-06T06:31:36.544Z,12.13
2022-09-06T06:34:04.390Z,11.80
2022-09-06T06:36:33.980Z,12.43
2022-09-06T06:39:02.355Z,11.87
2022-09-06T06:41:31.936Z,11.47
2022-09-06T06:44:01.260Z,12.20
2022-09-06T06:46:34.137Z,11.23
2022-09-06T06:49:00.941Z,12.13
2022-09-06T06:51:30.497Z,11.50
2022-09-06T06:53:57.643Z,11.60
2022-09-06T06:56:30.110Z,13.23
2022-09-06T06:58:59.683Z,10.87
2022-09-06T07:01:28.104Z,12.30
2022-09-06T07:03:55.188Z,14.10
2022-09-06T07:09:09.284Z,14.63
2022-09-06T07:11:37.159Z,10.77
2022-09-06T07:14:03.866Z,11.10
2022-09-06T07:16:30.824Z,11.37
2022-09-06T07:18:57.565Z,10.77
2022-09-06T07:21:42.515Z,13.10
2022-09-06T07:24:09.796Z,11.17
2022-09-06T07:26:38.471Z,11.03
2022-09-06T07:29:06.887Z,11.17
2022-09-06T07:34:22.291Z,12.00
2022-09-06T07:36:52.712Z,14.07
2022-09-06T07:39:19.663Z,13.40
2022-09-06T07:41:46.577Z,10.73
2022-09-06T07:44:13.411Z,10.37
2022-09-06T07:46:40.234Z,10.90
2022-09-06T07:49:07.206Z,10.27
2022-09-06T07:51:34.407Z,11.17
2022-09-06T07:54:26.152Z,11.73
2022-09-06T07:56:48.085Z,10.00
2022-09-06T07:59:15.155Z,10.45
2022-09-06T08:01:42.388Z,12.13
2022-09-06T08:04:14.068Z,12.83
2022-09-06T08:09:30.601Z,12.60
2022-09-06T08:11:57.435Z,10.95
2022-09-06T08:14:24.262Z,11.32
2022-09-06T08:16:50.990Z,10.90
2022-09-06T08:19:18.537Z,14.50
2022-09-06T08:21:45.457Z,12.32
2022-09-06T08:24:12.343Z,13.48
2022-09-06T08:26:40.761Z,10.88
2022-09-06T08:29:08.950Z,13.25
2022-09-06T08:31:38.692Z,10.88
2022-09-06T08:34:05.998Z,11.85
2022-09-06T08:36:33.430Z,10.80
2022-09-06T08:39:01.771Z,14.93
2022-09-06T08:41:51.825Z,9.80
2022-09-06T08:47:09.659Z,11.65
2022-09-06T08:49:42.853Z,13.63
2022-09-06T08:52:54.339Z,9.57
2022-09-06T08:55:31.492Z,10.52
2022-09-06T08:58:11.429Z,10.40
2022-09-06T09:00:38.666Z,9.68
2022-09-06T09:03:17.021Z,11.65
2022-09-06T09:05:47.889Z,10.68
2022-09-06T09:08:31.521Z,11.50
2022-09-06T09:11:02.023Z,10.55
2022-09-06T09:14:13.601Z,11.88
2022-09-06T09:16:40.399Z,10.70
2022-09-06T09:19:07.222Z,12.45
2022-09-06T09:21:36.894Z,12.40
2022-09-06T09:24:09.425Z,10.88
2022-09-06T09:26:55.251Z,10.20
2022-09-06T09:29:27.409Z,12.40
2022-09-06T09:31:56.427Z,9.82
2022-09-06T09:34:37.888Z,10.18
2022-09-06T09:39:59.435Z,12.43
2022-09-06T09:42:35.119Z,10.82
2022-09-06T09:45:02.765Z,9.30
2022-09-06T09:47:31.321Z,9.77
2022-09-06T09:49:58.485Z,9.68
2022-09-06T09:52:31.048Z,9.77
2022-09-06T09:55:01.117Z,8.52
2022-09-06T09:57:30.380Z,11.65
2022-09-06T10:00:01.173Z,8.75
2022-09-06T10:02:35.890Z,8.40
2022-09-06T10:05:10.165Z,8.85
2022-09-06T10:07:43.588Z,8.05
2022-09-06T10:10:15.436Z,8.52
2022-09-06T10:12:42.777Z,9.20
2022-09-06T10:15:12.007Z,8.02
2022-09-06T10:17:44.664Z,8.63
2022-09-06T10:20:12.797Z,8.48
2022-09-06T10:23:04.860Z,7.43
2022-09-06T10:25:38.246Z,8.82
2022-09-06T10:28:12.855Z,8.88
2022-09-06T10:31:11.853Z,8.90
2022-09-06T10:33:53.780Z,8.00
2022-09-06T10:36:28.843Z,9.23
2022-09-06T10:39:03.667Z,8.32
2022-09-06T10:42:03.527Z,8.73
2022-09-06T10:44:51.999Z,8.88
2022-09-06T10:47:18.783Z,8.63
2022-09-06T10:49:49.551Z,8.38
2022-09-06T10:52:25.682Z,7.82
2022-09-06T10:54:53.808Z,9.05
2022-09-06T11:00:13.690Z,8.63
2022-09-06T11:05:58.707Z,9.07
2022-09-06T11:08:47.472Z,8.02
2022-09-06T11:11:24.424Z,8.23
2022-09-06T11:13:51.195Z,8.32
2022-09-06T11:16:31.727Z,8.40
2022-09-06T11:19:10.031Z,8.18
2022-09-06T11:22:05.227Z,8.00
2022-09-06T11:24:59.925Z,8.82
2022-09-06T11:27:34.983Z,7.88
2022-09-06T11:30:03.951Z,7.45
2022-09-06T11:32:34.810Z,8.13
2022-09-06T11:35:07.332Z,7.82
2022-09-06T11:37:39.703Z,7.50
2022-09-06T11:40:28.489Z,8.25
2022-09-06T11:42:55.671Z,8.63
2022-09-06T11:45:50.813Z,7.88
2022-09-06T11:48:23.408Z,8.90
2022-09-06T11:50:59.343Z,7.18
2022-09-06T11:53:29.252Z,7.55
2022-09-06T11:56:04.806Z,8.98
2022-09-06T11:58:41.629Z,7.25
2022-09-06T12:01:16.534Z,7.53
2022-09-06T12:07:03.818Z,6.68
2022-09-06T12:09:33.052Z,7.35
2022-09-06T12:12:00.572Z,6.80
2022-09-06T12:14:40.430Z,8.07
2022-09-06T12:17:11.353Z,6.45
2022-09-06T12:19:49.230Z,6.78
2022-09-06T12:22:28.853Z,6.35
2022-09-06T12:25:17.859Z,13.45
2022-09-06T12:28:05.385Z,7.40
2022-09-06T12:30:44.743Z,6.78
2022-09-06T12:33:25.891Z,6.55
2022-09-06T12:35:56.346Z,7.55
2022-09-06T12:38:25.695Z,6.75
2022-09-06T12:40:56.505Z,7.03
2022-09-06T12:43:23.180Z,6.70
2022-09-06T12:45:51.682Z,8.90
2022-09-06T12:48:35.422Z,6.93
2022-09-06T12:51:04.504Z,6.85
2022-09-06T12:53:31.751Z,6.55
2022-09-06T12:56:10.187Z,6.93
2022-09-06T12:58:38.761Z,6.65
2022-09-06T13:01:26.299Z,6.68
2022-09-06T13:03:57.028Z,6.90
2022-09-06T13:06:27.177Z,6.40
2022-09-06T13:08:55.905Z,7.38
2022-09-06T13:11:30.814Z,6.45
2022-09-06T13:13:57.981Z,7.03
2022-09-06T13:16:38.457Z,6.85
2022-09-06T13:19:38.409Z,6.72
2022-09-06T13:22:07.694Z,6.80
2022-09-06T13:24:34.279Z,6.50
2022-09-06T13:27:01.779Z,6.22
2022-09-06T13:29:32.156Z,6.25
2022-09-06T13:32:00.956Z,7.43
2022-09-06T13:34:28.859Z,6.03
2022-09-06T13:37:07.361Z,6.32
2022-09-06T13:39:44.047Z,7.30
2022-09-06T13:42:30.350Z,6.47
2022-09-06T13:45:01.918Z,6.93
2022-09-06T13:47:29.758Z,6.45
2022-09-06T13:49:56.453Z,6.13
2022-09-06T13:52:23.457Z,6.35
2022-09-06T13:54:50.215Z,5.63
2022-09-06T13:57:22.192Z,6.45
2022-09-06T13:59:50.888Z,16.67
2022-09-06T14:02:19.908Z,13.60
2022-09-06T14:04:46.973Z,6.47
2022-09-06T14:07:13.714Z,6.53
2022-09-06T14:09:40.407Z,5.82
2022-09-06T14:12:07.154Z,6.28
2022-09-06T14:14:34.368Z,5.88
2022-09-06T14:17:01.199Z,5.63
2022-09-06T14:19:28.861Z,6.07
2022-09-06T14:21:55.642Z,6.38
2022-09-06T14:24:22.484Z,5.88
2022-09-06T14:26:49.447Z,6.88
2022-09-06T14:29:16.180Z,6.82
2022-09-06T14:31:42.912Z,8.00
2022-09-06T14:34:09.662Z,6.32
2022-09-06T14:36:36.440Z,6.22
2022-09-06T14:39:03.907Z,6.78
2022-09-06T14:41:30.738Z,6.82
2022-09-06T14:43:58.709Z,7.15
2022-09-06T14:46:26.836Z,6.70
2022-09-06T14:49:01.910Z,8.43
2022-09-06T14:51:29.991Z,6.90
2022-09-06T14:54:00.163Z,6.88
2022-09-06T14:56:27.163Z,7.25
2022-09-06T14:58:57.328Z,6.53
2022-09-06T15:01:26.369Z,6.88
2022-09-06T15:03:58.225Z,7.22
2022-09-06T15:06:26.457Z,7.88
2022-09-06T15:08:57.049Z,11.88
2022-09-06T15:11:35.044Z,6.00
2022-09-06T15:14:04.141Z,6.15
2022-09-06T15:16:31.529Z,6.55
2022-09-06T15:18:58.634Z,6.53
2022-09-06T15:21:25.933Z,6.57
2022-09-06T15:23:53.381Z,6.32
2022-09-06T15:26:20.311Z,6.30
2022-09-06T15:28:47.360Z,7.80
2022-09-06T15:31:15.341Z,6.38
2022-09-06T15:33:42.287Z,6.82
2022-09-06T15:36:10.230Z,7.18
2022-09-06T15:38:41.168Z,6.80
2022-09-06T15:41:13.235Z,6.68
2022-09-06T15:43:42.371Z,6.30
2022-09-06T15:46:09.715Z,6.72
2022-09-06T15:48:41.859Z,6.50
2022-09-06T15:51:09.540Z,6.70
2022-09-06T15:53:36.447Z,5.38
2022-09-06T15:56:04.191Z,5.45
2022-09-06T15:58:31.614Z,7.07
2022-09-06T16:01:10.275Z,6.10
2022-09-06T16:03:45.907Z,7.63
2022-09-06T16:06:27.527Z,5.65
2022-09-06T16:09:14.831Z,5.07
2022-09-06T16:11:41.996Z,5.65
2022-09-06T16:14:11.815Z,5.13
2022-09-06T16:16:39.974Z,5.07
2022-09-06T16:19:06.857Z,4.93
2022-09-06T16:21:34.819Z,5.05
2022-09-06T16:24:04.314Z,5.35
2022-09-06T16:26:35.128Z,5.35
2022-09-06T16:29:03.309Z,5.10
2022-09-06T16:31:30.078Z,5.15
2022-09-06T16:33:58.039Z,5.35
2022-09-06T16:36:26.072Z,4.65
2022-09-06T16:38:53.344Z,7.63
2022-09-06T16:41:39.518Z,4.72
2022-09-06T16:44:08.136Z,5.60
2022-09-06T16:46:34.847Z,7.57
2022-09-06T16:49:03.133Z,4.47
2022-09-06T16:51:31.503Z,4.80
2022-09-06T16:53:59.563Z,6.90
2022-09-06T16:56:28.406Z,5.85
2022-09-06T16:58:57.004Z,6.82
2022-09-06T17:01:24.755Z,4.72
2022-09-06T17:03:52.011Z,6.05
2022-09-06T17:06:19.308Z,4.45
2022-09-06T17:08:46.282Z,5.55
2022-09-06T17:11:18.520Z,4.78
2022-09-06T17:13:47.331Z,6.22
2022-09-06T17:16:33.362Z,4.50
2022-09-06T17:19:01.353Z,4.50
2022-09-06T17:21:29.135Z,4.25
2022-09-06T17:23:58.774Z,4.28
2022-09-06T17:26:25.427Z,4.32
2022-09-06T17:28:52.362Z,4.55
2022-09-06T17:31:25.012Z,3.97
2022-09-06T17:33:53.294Z,3.83
2022-09-06T17:36:23.771Z,4.00
2022-09-06T17:38:53.411Z,5.15
2022-09-06T17:41:29.690Z,5.13
2022-09-06T17:43:58.678Z,5.97
2022-09-06T17:46:28.872Z,5.55
2022-09-06T17:48:56.784Z,4.80
2022-09-06T17:51:24.559Z,7.75
2022-09-06T17:53:52.332Z,4.10
2022-09-06T17:56:20.055Z,5.25
2022-09-06T17:58:59.370Z,7.15
2022-09-06T18:01:29.643Z,3.90
2022-09-06T18:03:57.192Z,3.92
2022-09-06T18:06:25.666Z,4.25
2022-09-06T18:08:54.339Z,4.10
2022-09-06T18:11:29.029Z,4.97
2022-09-06T18:14:01.065Z,5.38
2022-09-06T18:16:28.962Z,4.97
2022-09-06T18:18:58.331Z,4.13
2022-09-06T18:21:27.108Z,4.47
2022-09-06T18:23:57.360Z,3.92
2022-09-06T18:26:24.719Z,4.50
2022-09-06T18:28:52.997Z,4.47
2022-09-06T18:31:22.203Z,4.60
2022-09-06T18:33:49.125Z,4.75
2022-09-06T18:36:16.351Z,5.13
2022-09-06T18:38:43.562Z,6.65
2022-09-06T18:41:31.473Z,5.45
2022-09-06T18:44:02.580Z,6.55
2022-09-06T18:46:30.885Z,4.28
2022-09-06T18:48:58.201Z,7.95
2022-09-06T18:51:25.173Z,4.43
2022-09-06T18:53:52.891Z,5.45
2022-09-06T18:56:20.069Z,4.63
2022-09-06T18:58:47.211Z,4.73
2022-09-06T19:01:17.870Z,4.77
2022-09-06T19:03:44.697Z,4.80
2022-09-06T19:06:13.721Z,4.73
2022-09-06T19:08:41.100Z,5.13
2022-09-06T19:11:12.740Z,4.72
2022-09-06T19:13:41.797Z,4.90
2022-09-06T19:16:10.008Z,5.20
2022-09-06T19:18:37.631Z,5.70
2022-09-06T19:21:09.777Z,5.20
2022-09-06T19:23:39.005Z,5.23
2022-09-06T19:26:08.696Z,5.23
2022-09-06T19:28:37.267Z,4.73
2022-09-06T19:31:07.861Z,5.20
2022-09-06T19:33:36.337Z,5.30
2022-09-06T19:36:11.513Z,5.00
2022-09-06T19:39:01.503Z,5.10
2022-09-06T19:41:27.003Z,5.50
2022-09-06T19:43:55.546Z,4.97
2022-09-06T19:46:23.344Z,5.87
2022-09-06T19:48:51.736Z,5.73
2022-09-06T19:51:19.700Z,5.43
2022-09-06T19:53:53.247Z,6.13
2022-09-06T19:56:22.900Z,6.03
2022-09-06T19:58:55.277Z,5.93
2022-09-06T20:01:22.620Z,6.10
2022-09-06T20:03:49.499Z,6.13
2022-09-06T20:06:16.373Z,5.90
2022-09-06T20:08:43.149Z,6.87
2022-09-06T20:11:12.713Z,7.20
2022-09-06T20:13:39.925Z,6.30
2022-09-06T20:16:08.324Z,5.90
2022-09-06T20:18:35.655Z,5.97
2022-09-06T20:21:02.954Z,5.80
2022-09-06T20:23:30.827Z,6.13
2022-09-06T20:26:04.575Z,6.13
2022-09-06T20:28:31.923Z,5.83
2022-09-06T20:31:01.271Z,5.77
2022-09-06T20:33:28.991Z,5.67
2022-09-06T20:36:02.811Z,6.43
2022-09-06T20:38:36.231Z,5.47
2022-09-06T20:41:10.959Z,5.43
2022-09-06T20:43:39.024Z,5.63
2022-09-06T20:46:14.749Z,5.43
2022-09-06T20:48:44.994Z,5.87
2022-09-06T20:51:20.674Z,6.63
2022-09-06T20:53:55.299Z,6.20
2022-09-06T20:56:27.395Z,6.23
2022-09-06T20:59:00.846Z,5.93
2022-09-06T21:01:29.970Z,5.67
2022-09-06T21:03:59.403Z,5.83
2022-09-06T21:06:28.378Z,6.53
2022-09-06T21:08:56.347Z,5.97
2022-09-06T21:11:23.743Z,5.60
2022-09-06T21:13:52.000Z,5.83
2022-09-06T21:16:24.226Z,6.30
2022-09-06T21:18:52.512Z,5.80
2022-09-06T21:21:19.181Z,6.53
2022-09-06T21:23:46.019Z,6.13
2022-09-06T21:26:13.165Z,6.13
2022-09-06T21:28:40.749Z,6.20
2022-09-06T21:31:19.485Z,6.80
2022-09-06T21:33:47.627Z,6.40
2022-09-06T21:36:16.754Z,6.33
2022-09-06T21:38:48.255Z,6.33
2022-09-06T21:41:17.091Z,6.10
2022-09-06T21:43:44.912Z,6.27
2022-09-06T21:46:13.885Z,6.37
2022-09-06T21:48:42.696Z,6.50
2022-09-06T21:51:15.371Z,6.67
2022-09-06T21:53:44.254Z,6.40
2022-09-06T21:56:11.430Z,6.07
2022-09-06T21:58:38.460Z,6.70
2022-09-06T22:01:06.058Z,6.50
2022-09-06T22:03:36.016Z,6.23
2022-09-06T22:06:14.158Z,6.33
2022-09-06T22:08:44.092Z,6.20
2022-09-06T22:11:14.462Z,6.90
2022-09-06T22:13:42.056Z,6.93
2022-09-06T22:16:09.879Z,6.43
2022-09-06T22:18:37.072Z,6.43
2022-09-06T22:21:06.722Z,6.47
2022-09-06T22:23:33.715Z,7.00
2022-09-06T22:26:11.547Z,7.07
2022-09-06T22:28:38.980Z,6.37
2022-09-06T22:31:06.863Z,6.70
2022-09-06T22:33:33.636Z,6.67
2022-09-06T22:36:00.786Z,7.53
2022-09-06T22:38:28.533Z,6.50
2022-09-06T22:40:55.444Z,7.17
2022-09-06T22:43:22.171Z,6.73
2022-09-06T22:45:52.004Z,6.83
2022-09-06T22:48:19.087Z,7.03
2022-09-06T22:50:46.310Z,9.13
2022-09-06T22:53:12.991Z,6.63
2022-09-06T22:55:39.760Z,7.03
2022-09-06T22:58:06.673Z,6.67
2022-09-06T23:00:36.211Z,7.17
2022-09-06T23:03:03.157Z,7.00
2022-09-06T23:05:31.501Z,7.50
2022-09-06T23:08:00.297Z,6.67
2022-09-06T23:10:27.623Z,7.43
2022-09-06T23:12:54.858Z,6.37
2022-09-06T23:15:22.026Z,7.40
2022-09-06T23:17:48.958Z,6.77
2022-09-06T23:20:15.810Z,6.57
2022-09-06T23:22:42.609Z,6.70
2022-09-06T23:25:09.538Z,6.53
2022-09-06T23:27:36.809Z,7.13
2022-09-06T23:30:04.407Z,6.60
2022-09-06T23:32:34.206Z,6.37
2022-09-06T23:35:00.951Z,6.30
2022-09-06T23:37:27.641Z,6.20
2022-09-06T23:39:54.402Z,6.30
2022-09-06T23:42:22.992Z,6.93
2022-09-06T23:44:54.464Z,6.07
2022-09-06T23:47:21.311Z,6.40
2022-09-06T23:49:50.688Z,5.83
2022-09-06T23:52:17.979Z,6.77
2022-09-06T23:54:44.878Z,6.00
2022-09-06T23:57:11.669Z,5.70
2022-09-06T23:59:38.395Z,6.10
